Time;durP1;ratioP1;P1;durP2;ratioP2;P2;SDS_P1;SDS_P2;PMS_P1;PMS_P2;Temp;Humidity;BMP_temperature;BMP_pressure;BME280_temperature;BME280_humidity;BME280_pressure;Samples;Min_cycle;Max_cycle;Signal;HPM_P1;HPM_P2
2022/02/07 05:53:48;;;;;;;7.40;3.10;;;;;;;;;;4880224;23;20051;-65
2022/02/07 05:56:14;;;;;;;8.93;3.80;;;;;;;;;;4974645;28;20038;-66
2022/02/07 05:58:41;;;;;;;7.78;3.40;;;;;;;;;;4974502;28;20026;-65
2022/02/07 06:01:07;;;;;;;10.82;3.72;;;;;;;;;;4974904;28;20050;-66
2022/02/07 06:03:33;;;;;;;9.07;3.92;;;;;;;;;;4974580;28;20034;-64
2022/02/07 06:05:59;;;;;;;10.02;4.25;;;;;;;;;;4974328;28;20061;-66
2022/02/07 06:08:25;;;;;;;9.27;4.15;;;;;;;;;;4974410;28;20498;-66
2022/02/07 06:10:51;;;;;;;9.25;5.10;;;;;;;;;;4974486;28;20478;-65
2022/02/07 06:13:18;;;;;;;10.10;4.75;;;;;;;;;;4974623;28;20426;-67
2022/02/07 06:15:44;;;;;;;13.38;5.13;;;;;;;;;;4974092;28;20102;-65
2022/02/07 06:18:13;;;;;;;13.25;6.13;;;;;;;;;;4974239;28;20030;-67
2022/02/07 06:20:40;;;;;;;12.88;5.72;;;;;;;;;;4974184;28;20466;-66
2022/02/07 06:23:06;;;;;;;11.43;5.75;;;;;;;;;;4967632;28;20039;-68
2022/02/07 06:25:32;;;;;;;21.33;8.55;;;;;;;;;;4952649;28;20042;-68
2022/02/07 06:27:58;;;;;;;21.52;8.70;;;;;;;;;;4972453;28;20046;-66
2022/02/07 06:30:24;;;;;;;18.98;7.63;;;;;;;;;;4971861;28;20039;-64
2022/02/07 06:32:50;;;;;;;21.00;11.23;;;;;;;;;;4969881;28;20038;-62
2022/02/07 06:35:17;;;;;;;20.48;10.02;;;;;;;;;;4972733;28;20121;-67
2022/02/07 06:37:43;;;;;;;15.85;9.40;;;;;;;;;;4972403;28;20066;-65
2022/02/07 06:40:10;;;;;;;13.05;7.70;;;;;;;;;;4974592;28;20452;-65
2022/02/07 06:42:36;;;;;;;12.95;5.10;;;;;;;;;;4961715;28;20047;-65
2022/02/07 06:45:03;;;;;;;10.45;4.70;;;;;;;;;;4964448;28;20027;-69
2022/02/07 06:47:30;;;;;;;10.40;4.70;;;;;;;;;;4961725;28;20050;-65
2022/02/07 06:49:56;;;;;;;10.63;4.80;;;;;;;;;;4960305;28;20047;-63
2022/02/07 06:52:22;;;;;;;21.23;9.32;;;;;;;;;;4962959;28;20046;-66
2022/02/07 06:54:48;;;;;;;35.95;15.13;;;;;;;;;;4953983;29;20039;-65
2022/02/07 06:57:16;;;;;;;33.60;15.70;;;;;;;;;;4954132;29;20027;-69
2022/02/07 06:59:44;;;;;;;47.08;17.63;;;;;;;;;;4955204;29;20360;-68
2022/02/07 07:02:11;;;;;;;41.97;18.70;;;;;;;;;;4926818;29;20043;-65
2022/02/07 07:04:38;;;;;;;43.17;17.98;;;;;;;;;;4939826;29;20042;-64
2022/02/07 07:07:04;;;;;;;37.53;17.50;;;;;;;;;;4953074;29;20078;-64
2022/02/07 07:09:32;;;;;;;34.78;17.50;;;;;;;;;;4951775;29;20039;-65
2022/02/07 07:12:03;;;;;;;40.67;18.38;;;;;;;;;;4931224;29;20027;-65
2022/02/07 07:14:39;;;;;;;40.67;17.35;;;;;;;;;;4943123;29;20474;-64
2022/02/07 07:17:06;;;;;;;38.42;17.35;;;;;;;;;;4942972;29;20046;-65
2022/02/07 07:19:32;;;;;;;35.88;16.65;;;;;;;;;;4942448;29;20030;-66
2022/02/07 07:21:59;;;;;;;36.30;16.92;;;;;;;;;;4928464;29;20031;-68
2022/02/07 07:24:25;;;;;;;34.30;16.45;;;;;;;;;;4940016;29;20171;-63
2022/02/07 07:26:52;;;;;;;33.15;16.10;;;;;;;;;;4936470;29;20079;-65
2022/02/07 07:29:24;;;;;;;54.88;22.63;;;;;;;;;;4924379;29;20032;-63
2022/02/07 07:31:55;;;;;;;60.85;26.17;;;;;;;;;;4941987;29;20486;-62
2022/02/07 07:34:22;;;;;;;63.05;28.45;;;;;;;;;;4942112;29;20081;-63
2022/02/07 07:36:49;;;;;;;63.38;28.70;;;;;;;;;;4943760;29;20402;-64
2022/02/07 07:39:16;;;;;;;62.53;27.40;;;;;;;;;;4942398;29;20036;-65
2022/02/07 07:41:43;;;;;;;70.32;29.00;;;;;;;;;;4940984;28;20127;-63
2022/02/07 07:44:10;;;;;;;57.38;24.35;;;;;;;;;;4941221;29;20383;-64
2022/02/07 07:46:37;;;;;;;61.40;27.42;;;;;;;;;;4948887;29;20034;-62
2022/02/07 07:49:17;;;;;;;54.90;23.33;;;;;;;;;;4953645;29;20031;-64
2022/02/07 07:51:51;;;;;;;52.17;22.13;;;;;;;;;;4949716;29;20031;-62
2022/02/07 07:54:41;;;;;;;45.50;20.75;;;;;;;;;;4933438;29;20040;-63
2022/02/07 08:02:39;;;;;;;30.65;15.52;;;;;;;;;;4933795;29;20120;-62
2022/02/07 08:05:17;;;;;;;30.50;14.55;;;;;;;;;;4933500;29;20082;-60
2022/02/07 08:07:43;;;;;;;33.33;14.48;;;;;;;;;;4933501;29;20039;-60
2022/02/07 08:12:46;;;;;;;;;;;;;;;;;;4934115;29;20032;-65
2022/02/07 08:15:15;;;;;;;10.57;5.78;;;;;;;;;;4933607;29;19911;-65
2022/02/07 08:17:41;;;;;;;11.90;6.15;;;;;;;;;;4933721;29;20057;-64
2022/02/07 08:20:07;;;;;;;14.93;7.15;;;;;;;;;;4933290;29;20099;-64
2022/02/07 08:22:33;;;;;;;15.88;7.03;;;;;;;;;;4933339;29;20050;-65
2022/02/07 08:25:00;;;;;;;18.48;7.47;;;;;;;;;;4933695;29;20024;-65
2022/02/07 08:27:27;;;;;;;11.07;6.30;;;;;;;;;;4916022;29;20040;-65
2022/02/07 08:29:53;;;;;;;13.52;7.25;;;;;;;;;;4933124;29;20059;-64
2022/02/07 08:32:20;;;;;;;14.68;6.60;;;;;;;;;;4933523;29;20020;-62
2022/02/07 08:34:46;;;;;;;13.88;6.40;;;;;;;;;;4933611;29;20087;-61
2022/02/07 08:37:12;;;;;;;14.43;7.57;;;;;;;;;;4934449;29;20027;-64
2022/02/07 08:39:38;;;;;;;11.50;7.00;;;;;;;;;;4935638;29;20024;-67
2022/02/07 08:42:05;;;;;;;15.95;7.47;;;;;;;;;;4934001;29;20032;-67
2022/02/07 08:44:31;;;;;;;14.50;8.15;;;;;;;;;;4933202;29;20078;-59
2022/02/07 08:46:58;;;;;;;14.80;8.02;;;;;;;;;;4933789;29;20026;-65
2022/02/07 08:49:24;;;;;;;18.27;9.48;;;;;;;;;;4916624;29;20039;-61
2022/02/07 08:51:51;;;;;;;21.48;9.90;;;;;;;;;;4933261;29;21836;-65
2022/02/07 08:54:24;;;;;;;15.82;8.50;;;;;;;;;;4919054;29;20441;-61
2022/02/07 08:56:55;;;;;;;18.27;9.63;;;;;;;;;;4937250;29;20492;-61
2022/02/07 08:59:29;;;;;;;22.67;13.20;;;;;;;;;;4936917;29;20071;-62
2022/02/07 09:02:12;;;;;;;23.27;12.85;;;;;;;;;;4955280;29;20058;-64
2022/02/07 09:04:46;;;;;;;21.98;11.98;;;;;;;;;;4956116;29;20452;-62
2022/02/07 09:07:18;;;;;;;20.98;10.05;;;;;;;;;;4956051;29;20062;-64
2022/02/07 09:09:45;;;;;;;17.92;9.50;;;;;;;;;;4956033;29;20395;-59
2022/02/07 09:12:12;;;;;;;18.38;10.57;;;;;;;;;;4955739;29;20023;-59
2022/02/07 09:14:44;;;;;;;20.05;11.13;;;;;;;;;;4956001;29;20027;-64
2022/02/07 09:17:11;;;;;;;23.92;11.93;;;;;;;;;;4956020;29;20087;-64
2022/02/07 09:19:37;;;;;;;26.60;13.10;;;;;;;;;;4956965;29;20035;-63
2022/02/07 09:22:04;;;;;;;23.75;12.45;;;;;;;;;;4956586;29;20091;-65
2022/02/07 09:24:31;;;;;;;24.05;13.52;;;;;;;;;;4938814;29;20032;-62
2022/02/07 09:26:57;;;;;;;26.17;13.45;;;;;;;;;;4956894;29;20031;-62
2022/02/07 09:29:23;;;;;;;23.70;12.60;;;;;;;;;;4955435;29;20475;-63
2022/02/07 09:31:50;;;;;;;20.48;10.50;;;;;;;;;;4959714;29;20058;-64
2022/02/07 09:34:16;;;;;;;17.05;9.25;;;;;;;;;;4959700;29;20054;-65
2022/02/07 09:36:44;;;;;;;15.82;7.82;;;;;;;;;;4955694;29;20027;-67
2022/02/07 09:39:11;;;;;;;14.82;7.38;;;;;;;;;;4955890;29;20031;-65
2022/02/07 09:41:37;;;;;;;14.25;7.03;;;;;;;;;;4938417;29;20082;-62
2022/02/07 09:44:04;;;;;;;11.75;6.82;;;;;;;;;;4957856;29;20038;-64
2022/02/07 09:49:19;;;;;;;12.60;6.55;;;;;;;;;;4955713;29;20047;-66
2022/02/07 09:51:47;;;;;;;12.77;5.90;;;;;;;;;;4937912;29;20383;-63
2022/02/07 09:54:17;;;;;;;14.73;6.63;;;;;;;;;;4957427;29;20078;-66
2022/02/07 09:56:45;;;;;;;15.40;8.10;;;;;;;;;;4956212;29;20031;-64
2022/02/07 09:59:13;;;;;;;20.65;8.05;;;;;;;;;;4954994;29;20035;-63
2022/02/07 10:04:23;;;;;;;14.73;8.07;;;;;;;;;;4959127;28;20557;-62
2022/02/07 10:06:57;;;;;;;16.70;7.68;;;;;;;;;;4959905;29;20026;-65
2022/02/07 10:09:40;;;;;;;13.25;7.82;;;;;;;;;;4957262;29;20114;-66
2022/02/07 10:17:56;;;;;;;26.00;12.10;;;;;;;;;;4876207;29;20043;-62
2022/02/07 10:34:39;;;;;;;6.85;2.78;;;;;;;;;;4825678;29;20057;-64
2022/02/07 10:40:13;;;;;;;6.55;3.03;;;;;;;;;;4820392;29;20053;-62
2022/02/07 10:46:08;;;;;;;3.67;2.03;;;;;;;;;;4830556;29;20574;-63
2022/02/07 10:48:38;;;;;;;6.00;3.10;;;;;;;;;;4830568;29;20044;-63
2022/02/07 10:51:06;;;;;;;6.05;2.70;;;;;;;;;;4830163;29;20035;-64
2022/02/07 10:53:39;;;;;;;5.55;2.42;;;;;;;;;;4857812;29;20551;-64
2022/02/07 10:56:05;;;;;;;6.22;2.72;;;;;;;;;;4880590;29;20040;-64
2022/02/07 10:58:32;;;;;;;6.43;2.55;;;;;;;;;;4885228;29;20840;-64
2022/02/07 11:01:08;;;;;;;6.53;3.22;;;;;;;;;;4881266;29;20048;-64
2022/02/07 11:06:16;;;;;;;7.13;2.08;;;;;;;;;;4938832;29;20407;-64
2022/02/07 11:08:50;;;;;;;7.13;2.90;;;;;;;;;;4940426;29;20086;-61
2022/02/07 11:17:58;;;;;;;5.45;2.10;;;;;;;;;;4874513;29;20097;-62
2022/02/07 11:20:02;;;;;;;8.32;3.92;;;;;;;;;;4869195;29;20100;-66
2022/02/07 11:27:41;;;;;;;11.35;7.60;;;;;;;;;;4875461;29;20080;-64
2022/02/07 11:30:11;;;;;;;9.77;6.50;;;;;;;;;;4874571;29;20037;-63
2022/02/07 11:32:44;;;;;;;6.97;2.53;;;;;;;;;;4875552;29;20076;-62
2022/02/07 11:35:11;;;;;;;9.85;4.40;;;;;;;;;;4874425;29;20157;-63
2022/02/07 11:37:37;;;;;;;8.07;3.40;;;;;;;;;;4875259;29;20106;-65
2022/02/07 11:40:22;;;;;;;9.55;4.13;;;;;;;;;;4875435;29;20545;-61
2022/02/07 11:43:07;;;;;;;8.02;3.97;;;;;;;;;;4874554;29;20559;-63
2022/02/07 11:45:53;;;;;;;10.27;5.43;;;;;;;;;;4874853;29;20064;-62
2022/02/07 11:48:20;;;;;;;11.05;5.05;;;;;;;;;;4837786;29;20066;-61
2022/02/07 11:50:46;;;;;;;18.48;6.15;;;;;;;;;;4863232;29;20057;-63
2022/02/07 11:53:15;;;;;;;14.77;5.75;;;;;;;;;;4893598;29;20048;-63
2022/02/07 11:55:49;;;;;;;9.93;4.45;;;;;;;;;;4893098;29;20032;-64
2022/02/07 11:58:24;;;;;;;8.38;3.88;;;;;;;;;;4893373;29;20051;-63
2022/02/07 12:00:57;;;;;;;6.65;3.22;;;;;;;;;;4893097;29;20182;-63
2022/02/07 12:03:25;;;;;;;5.25;3.00;;;;;;;;;;4892909;29;20032;-62
2022/02/07 12:05:52;;;;;;;14.80;7.30;;;;;;;;;;4893272;29;20052;-62
2022/02/07 12:08:25;;;;;;;5.10;3.05;;;;;;;;;;4893426;29;20231;-63
2022/02/07 12:11:04;;;;;;;7.00;3.17;;;;;;;;;;4893718;29;20041;-66
2022/02/07 12:13:34;;;;;;;9.65;4.00;;;;;;;;;;4893735;29;20092;-64
2022/02/07 12:16:05;;;;;;;6.40;3.55;;;;;;;;;;4893637;29;20036;-68
2022/02/07 12:18:31;;;;;;;10.45;4.80;;;;;;;;;;4891484;29;20378;-64
2022/02/07 12:21:13;;;;;;;10.48;4.93;;;;;;;;;;4893247;29;20036;-64
2022/02/07 12:23:40;;;;;;;11.02;5.72;;;;;;;;;;4878280;29;20040;-66
2022/02/07 12:26:14;;;;;;;13.10;5.60;;;;;;;;;;4939714;29;20051;-66
2022/02/07 12:28:56;;;;;;;10.02;5.30;;;;;;;;;;4954113;28;20028;-66
2022/02/07 12:31:22;;;;;;;8.90;4.13;;;;;;;;;;4939376;29;20057;-62
2022/02/07 12:33:52;;;;;;;7.95;3.55;;;;;;;;;;4939070;29;20256;-66
2022/02/07 12:36:19;;;;;;;7.53;3.50;;;;;;;;;;4956622;29;20122;-63
2022/02/07 12:38:45;;;;;;;6.50;2.90;;;;;;;;;;4956362;29;20035;-64
2022/02/07 12:41:12;;;;;;;6.18;3.45;;;;;;;;;;4956650;29;20027;-63
2022/02/07 12:43:40;;;;;;;5.43;2.55;;;;;;;;;;4956640;29;20023;-63
2022/02/07 12:46:07;;;;;;;4.50;2.20;;;;;;;;;;4956374;29;20020;-63
2022/02/07 12:48:36;;;;;;;4.05;2.10;;;;;;;;;;4956187;29;20019;-64
2022/02/07 12:51:03;;;;;;;7.28;4.07;;;;;;;;;;4939151;29;20446;-65
2022/02/07 12:53:30;;;;;;;39.10;19.30;;;;;;;;;;4956175;29;20126;-63
2022/02/07 12:55:57;;;;;;;6.93;3.20;;;;;;;;;;4956359;29;20054;-63
2022/02/07 12:58:29;;;;;;;4.53;2.10;;;;;;;;;;4955856;29;20083;-63
2022/02/07 13:00:55;;;;;;;3.45;1.58;;;;;;;;;;4956295;29;20031;-65
2022/02/07 13:03:21;;;;;;;4.25;1.55;;;;;;;;;;4938758;29;20109;-68
2022/02/07 13:05:48;;;;;;;4.70;1.10;;;;;;;;;;4956255;29;20467;-63
2022/02/07 13:08:15;;;;;;;3.75;1.60;;;;;;;;;;4955648;29;20576;-66
2022/02/07 13:10:42;;;;;;;3.20;1.15;;;;;;;;;;4955673;29;20039;-65
2022/02/07 13:13:28;;;;;;;5.72;1.40;;;;;;;;;;4955743;29;20023;-66
2022/02/07 13:15:55;;;;;;;3.08;1.02;;;;;;;;;;4956049;29;20140;-63
2022/02/07 13:18:22;;;;;;;4.50;1.45;;;;;;;;;;4955500;29;20027;-64
2022/02/07 13:20:49;;;;;;;7.63;3.40;;;;;;;;;;4955906;29;20047;-65
2022/02/07 13:23:17;;;;;;;4.70;2.33;;;;;;;;;;4955707;29;20023;-64
2022/02/07 13:25:47;;;;;;;5.03;1.83;;;;;;;;;;4955833;29;20122;-63
2022/02/07 13:28:15;;;;;;;3.63;1.23;;;;;;;;;;4955166;29;20031;-64
2022/02/07 13:30:42;;;;;;;9.13;4.20;;;;;;;;;;4955188;29;20039;-64
2022/02/07 13:33:08;;;;;;;4.40;2.20;;;;;;;;;;4955577;29;20050;-65
2022/02/07 13:35:40;;;;;;;3.60;1.85;;;;;;;;;;4955752;29;20133;-63
2022/02/07 13:38:07;;;;;;;3.90;2.20;;;;;;;;;;4955444;29;20050;-64
2022/02/07 13:40:40;;;;;;;4.75;1.98;;;;;;;;;;4955543;28;20106;-64
2022/02/07 13:43:09;;;;;;;5.68;2.20;;;;;;;;;;4955233;29;20476;-64
2022/02/07 13:45:35;;;;;;;6.78;2.25;;;;;;;;;;4955389;29;20086;-64
2022/02/07 13:48:02;;;;;;;5.22;2.13;;;;;;;;;;4955298;29;20024;-64
2022/02/07 13:50:28;;;;;;;3.03;1.38;;;;;;;;;;4955446;29;20041;-64
2022/02/07 13:52:56;;;;;;;3.38;1.58;;;;;;;;;;4954773;29;20051;-64
2022/02/07 13:55:28;;;;;;;5.03;2.10;;;;;;;;;;4954927;29;20031;-64
2022/02/07 13:57:54;;;;;;;;;;;;;;;;;;4955759;29;20042;-64
2022/02/07 14:00:21;;;;;;;8.38;2.08;;;;;;;;;;4955169;29;19910;-63
2022/02/07 14:02:47;;;;;;;4.40;1.95;;;;;;;;;;4955300;29;20069;-63
2022/02/07 14:05:14;;;;;;;4.43;2.13;;;;;;;;;;4954402;29;20038;-63
2022/02/07 14:07:49;;;;;;;6.13;2.05;;;;;;;;;;4954958;29;20419;-64
2022/02/07 14:10:19;;;;;;;5.15;1.98;;;;;;;;;;4954488;29;20046;-63
2022/02/07 14:12:46;;;;;;;6.05;2.38;;;;;;;;;;4954629;29;20028;-64
2022/02/07 14:15:12;;;;;;;6.32;3.08;;;;;;;;;;4954440;29;20024;-63
2022/02/07 14:17:43;;;;;;;4.57;1.67;;;;;;;;;;4954491;29;20117;-63
2022/02/07 14:20:12;;;;;;;10.30;3.42;;;;;;;;;;4954224;29;20016;-65
2022/02/07 14:22:38;;;;;;;11.45;1.98;;;;;;;;;;4954338;29;20038;-66
2022/02/07 14:25:04;;;;;;;6.28;2.05;;;;;;;;;;4954407;29;20027;-65
2022/02/07 14:27:32;;;;;;;4.25;2.28;;;;;;;;;;4954433;29;20086;-65
2022/02/07 14:29:58;;;;;;;5.43;2.15;;;;;;;;;;4954427;29;20557;-65
2022/02/07 14:32:24;;;;;;;6.55;2.22;;;;;;;;;;4954380;29;20034;-64
2022/02/07 14:34:50;;;;;;;5.95;2.13;;;;;;;;;;4937010;29;20035;-63
2022/02/07 14:37:18;;;;;;;6.00;2.47;;;;;;;;;;4954507;29;20043;-63
2022/02/07 14:39:44;;;;;;;4.90;2.45;;;;;;;;;;4954333;29;20046;-63
2022/02/07 14:42:11;;;;;;;6.25;2.60;;;;;;;;;;4954663;29;20038;-64
2022/02/07 14:44:56;;;;;;;7.85;3.15;;;;;;;;;;4954168;29;20098;-65
2022/02/07 14:47:39;;;;;;;7.50;3.13;;;;;;;;;;4954630;29;20402;-65
2022/02/07 14:50:06;;;;;;;10.52;4.10;;;;;;;;;;4954350;28;20039;-62
2022/02/07 14:52:32;;;;;;;7.28;3.20;;;;;;;;;;4953668;29;20133;-66
2022/02/07 14:54:58;;;;;;;8.48;3.53;;;;;;;;;;4954960;28;20347;-66
2022/02/07 14:57:25;;;;;;;10.07;4.10;;;;;;;;;;4936807;29;20038;-66
2022/02/07 14:59:51;;;;;;;13.20;5.47;;;;;;;;;;4952677;29;20038;-66
2022/02/07 15:02:20;;;;;;;12.35;4.55;;;;;;;;;;4953512;29;20038;-64
2022/02/07 15:04:47;;;;;;;9.82;4.00;;;;;;;;;;4953845;29;20020;-64
2022/02/07 15:07:13;;;;;;;8.93;4.15;;;;;;;;;;4941244;29;20152;-65
2022/02/07 15:09:39;;;;;;;9.25;4.15;;;;;;;;;;4934456;29;20447;-64
2022/02/07 15:12:05;;;;;;;10.98;4.43;;;;;;;;;;4934414;29;20028;-65
2022/02/07 15:14:31;;;;;;;8.82;3.15;;;;;;;;;;4934272;29;20035;-66
2022/02/07 15:16:57;;;;;;;7.65;3.60;;;;;;;;;;4934727;29;20499;-65
2022/02/07 15:19:24;;;;;;;12.60;5.30;;;;;;;;;;4934659;29;20419;-66
2022/02/07 15:21:50;;;;;;;9.13;3.85;;;;;;;;;;4934101;29;20026;-64
2022/02/07 15:24:16;;;;;;;8.50;2.90;;;;;;;;;;4953024;29;20035;-66
2022/02/07 15:26:45;;;;;;;8.18;3.20;;;;;;;;;;4953256;29;20039;-65
2022/02/07 15:29:13;;;;;;;11.98;4.50;;;;;;;;;;4953279;29;20042;-65
2022/02/07 15:31:44;;;;;;;9.45;4.05;;;;;;;;;;4953222;29;20032;-65
2022/02/07 15:34:10;;;;;;;12.43;4.18;;;;;;;;;;4936083;29;20755;-64
2022/02/07 15:36:36;;;;;;;8.55;3.80;;;;;;;;;;4953437;29;20031;-65
2022/02/07 15:39:03;;;;;;;10.45;3.60;;;;;;;;;;4953337;29;20406;-65
2022/02/07 15:41:30;;;;;;;11.18;3.67;;;;;;;;;;4952815;29;20050;-65
2022/02/07 15:43:56;;;;;;;8.65;3.53;;;;;;;;;;4953323;29;20225;-68
2022/02/07 15:46:23;;;;;;;10.38;4.15;;;;;;;;;;4953050;29;20035;-65
2022/02/07 15:48:50;;;;;;;13.52;5.03;;;;;;;;;;4953242;29;20070;-64
2022/02/07 15:51:16;;;;;;;8.98;4.15;;;;;;;;;;4952857;29;20023;-65
2022/02/07 15:53:42;;;;;;;11.30;4.30;;;;;;;;;;4951979;28;20087;-65
2022/02/07 15:56:08;;;;;;;12.30;4.90;;;;;;;;;;4952784;29;20077;-64
2022/02/07 15:58:35;;;;;;;14.23;5.40;;;;;;;;;;4953142;29;20023;-63
2022/02/07 16:01:01;;;;;;;13.00;4.78;;;;;;;;;;4953694;29;20023;-64
2022/02/07 16:03:27;;;;;;;13.73;4.47;;;;;;;;;;4952185;28;20846;-66
2022/02/07 16:05:53;;;;;;;10.32;4.30;;;;;;;;;;4952557;29;20138;-64
2022/02/07 16:08:19;;;;;;;10.00;4.32;;;;;;;;;;4952335;29;20031;-64
2022/02/07 16:10:46;;;;;;;11.65;4.38;;;;;;;;;;4950554;29;20046;-63
2022/02/07 16:15:41;;;;;;;15.43;4.50;;;;;;;;;;4933689;29;20567;-68
2022/02/07 16:18:07;;;;;;;12.95;4.38;;;;;;;;;;4933194;29;20023;-67
2022/02/07 16:20:35;;;;;;;11.88;4.80;;;;;;;;;;4933814;29;20035;-65
2022/02/07 16:23:02;;;;;;;11.50;4.88;;;;;;;;;;4933359;29;20075;-66
2022/02/07 16:25:29;;;;;;;12.27;4.80;;;;;;;;;;4933122;29;20051;-65
2022/02/07 16:27:55;;;;;;;10.73;4.35;;;;;;;;;;4933230;29;20031;-67
2022/02/07 16:30:21;;;;;;;12.35;4.60;;;;;;;;;;4933221;29;20103;-65
2022/02/07 16:32:47;;;;;;;12.18;4.30;;;;;;;;;;4933192;29;20450;-65
2022/02/07 16:35:14;;;;;;;9.95;4.60;;;;;;;;;;4945237;29;20483;-65
2022/02/07 16:37:41;;;;;;;11.05;5.00;;;;;;;;;;4953147;29;20046;-68
2022/02/07 16:40:07;;;;;;;11.98;4.30;;;;;;;;;;4929938;29;20039;-66
2022/02/07 16:42:36;;;;;;;8.20;3.83;;;;;;;;;;4949235;29;20042;-66
2022/02/07 16:45:06;;;;;;;10.40;4.20;;;;;;;;;;4952314;29;20019;-65
2022/02/07 16:47:32;;;;;;;10.13;4.05;;;;;;;;;;4952276;29;20082;-67
2022/02/07 16:49:58;;;;;;;11.00;4.28;;;;;;;;;;4952447;29;20039;-66
2022/02/07 16:52:24;;;;;;;11.77;4.78;;;;;;;;;;4952250;28;20078;-66
2022/02/07 16:54:51;;;;;;;9.43;4.40;;;;;;;;;;4952246;29;20082;-66
2022/02/07 16:57:17;;;;;;;11.65;4.47;;;;;;;;;;4952285;29;20082;-67
2022/02/07 16:59:43;;;;;;;10.20;4.50;;;;;;;;;;4952456;29;20027;-67
2022/02/07 17:02:11;;;;;;;14.15;4.20;;;;;;;;;;4952368;29;20034;-67
2022/02/07 17:04:37;;;;;;;12.35;5.00;;;;;;;;;;4952342;29;20043;-67
2022/02/07 17:07:03;;;;;;;9.75;3.95;;;;;;;;;;4952471;29;20055;-68
2022/02/07 17:09:30;;;;;;;10.95;4.18;;;;;;;;;;4952388;29;20491;-68
2022/02/07 17:11:56;;;;;;;11.48;4.30;;;;;;;;;;4952279;29;20102;-67
2022/02/07 17:14:22;;;;;;;10.25;4.03;;;;;;;;;;4953370;28;20027;-67
2022/02/07 17:16:49;;;;;;;7.20;3.38;;;;;;;;;;4956238;29;20055;-67
2022/02/07 17:19:17;;;;;;;10.32;4.03;;;;;;;;;;4956098;29;20082;-67
2022/02/07 17:21:43;;;;;;;8.45;3.55;;;;;;;;;;4956071;29;20050;-67
2022/02/07 17:24:09;;;;;;;7.68;4.00;;;;;;;;;;4955505;29;20027;-68
2022/02/07 17:26:35;;;;;;;8.07;4.07;;;;;;;;;;4954852;29;20027;-67
2022/02/07 17:29:02;;;;;;;10.38;3.83;;;;;;;;;;4955388;29;20046;-67
2022/02/07 17:31:28;;;;;;;8.30;3.65;;;;;;;;;;4955072;29;20038;-66
2022/02/07 17:33:54;;;;;;;12.82;4.53;;;;;;;;;;4954943;29;20028;-66
2022/02/07 17:36:20;;;;;;;11.05;4.55;;;;;;;;;;4955468;29;20037;-67
2022/02/07 17:38:47;;;;;;;13.23;5.18;;;;;;;;;;4952882;29;20506;-67
2022/02/07 17:41:15;;;;;;;15.07;5.75;;;;;;;;;;4954142;29;20031;-66
2022/02/07 17:43:53;;;;;;;18.48;6.03;;;;;;;;;;4955219;29;20467;-66
2022/02/07 17:46:20;;;;;;;8.73;3.45;;;;;;;;;;4955512;29;20031;-66
2022/02/07 17:48:47;;;;;;;11.77;3.47;;;;;;;;;;4955267;29;20059;-66
2022/02/07 17:51:13;;;;;;;9.35;3.00;;;;;;;;;;4937902;29;20475;-67
2022/02/07 17:53:40;;;;;;;10.65;3.60;;;;;;;;;;4954735;28;20063;-68
2022/02/07 17:56:06;;;;;;;10.68;3.10;;;;;;;;;;4955081;29;20665;-68
2022/02/07 17:58:32;;;;;;;9.00;3.33;;;;;;;;;;4955227;29;20031;-67
2022/02/07 18:00:58;;;;;;;15.00;3.83;;;;;;;;;;4954977;29;20042;-67
2022/02/07 18:03:26;;;;;;;12.30;3.28;;;;;;;;;;4954378;29;20383;-66
2022/02/07 18:05:52;;;;;;;12.23;3.90;;;;;;;;;;4955035;29;20111;-67
2022/02/07 18:08:18;;;;;;;12.98;4.40;;;;;;;;;;4954922;29;20558;-67
2022/02/07 18:10:46;;;;;;;13.57;4.18;;;;;;;;;;4954762;29;20035;-68
2022/02/07 18:13:13;;;;;;;11.95;4.88;;;;;;;;;;4954514;29;20020;-66
2022/02/07 18:15:39;;;;;;;21.65;9.98;;;;;;;;;;4954804;29;20035;-68
2022/02/07 18:18:06;;;;;;;12.65;4.07;;;;;;;;;;4954511;29;20039;-66
2022/02/07 18:20:40;;;;;;;12.43;4.20;;;;;;;;;;4954562;29;20027;-68
2022/02/07 18:23:06;;;;;;;15.02;4.72;;;;;;;;;;4954410;29;20019;-65
2022/02/07 18:25:33;;;;;;;14.80;5.05;;;;;;;;;;4953597;28;20039;-67
2022/02/07 18:28:00;;;;;;;13.48;5.50;;;;;;;;;;4953446;29;20042;-66
2022/02/07 18:30:27;;;;;;;10.15;3.97;;;;;;;;;;4942834;29;20035;-68
2022/02/07 18:32:54;;;;;;;24.67;5.68;;;;;;;;;;4948500;29;20023;-67
2022/02/07 18:35:20;;;;;;;9.85;3.53;;;;;;;;;;4944590;29;20498;-68
2022/02/07 18:37:50;;;;;;;10.52;3.33;;;;;;;;;;4945692;29;20034;-66
2022/02/07 18:40:23;;;;;;;11.55;3.30;;;;;;;;;;4943549;29;20027;-66
2022/02/07 18:42:51;;;;;;;11.77;3.55;;;;;;;;;;4936777;29;20391;-68
2022/02/07 18:45:23;;;;;;;14.30;3.80;;;;;;;;;;4918627;29;20176;-66
2022/02/07 18:47:54;;;;;;;10.75;3.67;;;;;;;;;;4937640;29;20430;-66
2022/02/07 18:50:20;;;;;;;13.20;4.85;;;;;;;;;;4953937;29;20039;-65
2022/02/07 18:52:48;;;;;;;13.80;4.20;;;;;;;;;;4953722;29;20059;-66
2022/02/07 18:55:15;;;;;;;13.23;4.50;;;;;;;;;;4953930;29;20035;-65
2022/02/07 18:57:44;;;;;;;14.18;3.90;;;;;;;;;;4953249;29;20454;-67
2022/02/07 19:00:17;;;;;;;9.35;3.55;;;;;;;;;;4953904;29;20078;-67
2022/02/07 19:02:49;;;;;;;9.73;3.72;;;;;;;;;;4953600;29;20482;-68
2022/02/07 19:07:48;;;;;;;8.63;3.50;;;;;;;;;;4953670;29;20027;-68
2022/02/07 19:10:14;;;;;;;9.98;3.30;;;;;;;;;;4953074;29;20390;-67
2022/02/07 19:12:41;;;;;;;8.77;3.47;;;;;;;;;;4953662;29;20023;-68
2022/02/07 19:15:08;;;;;;;11.00;3.67;;;;;;;;;;4953947;29;20023;-68
2022/02/07 19:17:37;;;;;;;7.30;3.30;;;;;;;;;;4953864;29;20019;-68
2022/02/07 19:20:10;;;;;;;9.32;3.30;;;;;;;;;;4953093;29;20427;-67
2022/02/07 19:22:39;;;;;;;9.02;3.50;;;;;;;;;;4952808;29;20055;-67
2022/02/07 19:28:06;;;;;;;7.38;3.25;;;;;;;;;;4875256;29;20508;-67
2022/02/07 19:30:32;;;;;;;9.00;3.78;;;;;;;;;;4875282;29;20193;-68
2022/02/07 19:33:04;;;;;;;9.25;3.88;;;;;;;;;;4875370;29;20037;-67
2022/02/07 19:35:37;;;;;;;5.23;2.97;;;;;;;;;;4875677;29;20081;-67
2022/02/07 19:38:03;;;;;;;11.63;4.20;;;;;;;;;;4875090;29;20385;-67
2022/02/07 19:40:31;;;;;;;7.60;3.40;;;;;;;;;;4875153;29;20022;-66
2022/02/07 19:45:36;;;;;;;13.02;5.85;;;;;;;;;;4875421;29;20060;-66
2022/02/07 19:48:03;;;;;;;11.90;5.70;;;;;;;;;;4875028;29;20029;-67
2022/02/07 19:50:29;;;;;;;9.25;4.63;;;;;;;;;;4875333;29;20049;-67
2022/02/07 19:52:55;;;;;;;12.43;5.68;;;;;;;;;;4874840;29;20113;-68
2022/02/07 19:55:26;;;;;;;11.10;4.80;;;;;;;;;;4875019;29;20044;-68
2022/02/07 19:57:57;;;;;;;9.50;3.22;;;;;;;;;;4875060;29;20045;-69
2022/02/07 20:00:28;;;;;;;10.70;4.80;;;;;;;;;;4875335;29;20056;-68
2022/02/07 20:02:55;;;;;;;9.93;3.95;;;;;;;;;;4875169;29;20037;-68
2022/02/07 20:05:22;;;;;;;8.48;4.00;;;;;;;;;;4914708;29;20078;-68
2022/02/07 20:07:48;;;;;;;8.10;3.20;;;;;;;;;;4934115;29;20412;-68
2022/02/07 20:10:15;;;;;;;5.60;2.75;;;;;;;;;;4934001;29;20036;-68
2022/02/07 20:12:45;;;;;;;6.78;2.60;;;;;;;;;;4933679;29;20083;-69
2022/02/07 20:15:11;;;;;;;6.65;3.15;;;;;;;;;;4934032;29;20115;-69
2022/02/07 20:17:38;;;;;;;7.90;3.55;;;;;;;;;;4933907;29;20028;-69
2022/02/07 20:20:05;;;;;;;7.10;3.45;;;;;;;;;;4933912;29;20464;-69
2022/02/07 20:22:31;;;;;;;8.80;4.13;;;;;;;;;;4952982;29;20024;-68
2022/02/07 20:24:58;;;;;;;8.65;3.85;;;;;;;;;;4952297;29;20042;-66
2022/02/07 20:27:26;;;;;;;9.00;4.38;;;;;;;;;;4951779;29;20039;-66
2022/02/07 20:29:52;;;;;;;8.98;3.92;;;;;;;;;;4952737;29;20035;-64
2022/02/07 20:32:24;;;;;;;10.40;4.50;;;;;;;;;;4955007;29;20082;-65
2022/02/07 20:34:54;;;;;;;11.23;4.40;;;;;;;;;;4953189;29;20030;-68
2022/02/07 20:37:20;;;;;;;10.48;3.80;;;;;;;;;;4952352;29;20023;-67
2022/02/07 20:39:47;;;;;;;12.23;4.60;;;;;;;;;;4954643;29;20457;-64
2022/02/07 20:42:13;;;;;;;9.60;4.00;;;;;;;;;;4952361;29;20027;-66
2022/02/07 20:44:39;;;;;;;9.38;3.55;;;;;;;;;;4953423;29;20479;-65
2022/02/07 20:47:12;;;;;;;7.88;3.63;;;;;;;;;;4943830;29;20035;-65
2022/02/07 20:49:39;;;;;;;5.50;3.17;;;;;;;;;;4942492;29;20086;-67
2022/02/07 20:52:05;;;;;;;9.60;3.97;;;;;;;;;;4947171;28;20098;-67
2022/02/07 20:54:31;;;;;;;8.55;3.15;;;;;;;;;;4927441;29;20106;-65
2022/02/07 20:56:57;;;;;;;7.28;2.83;;;;;;;;;;4947285;29;20031;-63
2022/02/07 20:59:23;;;;;;;5.50;3.03;;;;;;;;;;4936890;29;20082;-66
2022/02/07 21:01:53;;;;;;;5.68;2.90;;;;;;;;;;4937228;29;20031;-64
2022/02/07 21:04:20;;;;;;;5.60;2.53;;;;;;;;;;4937052;29;20031;-65
2022/02/07 21:06:53;;;;;;;6.82;2.97;;;;;;;;;;4936988;29;20019;-66
2022/02/07 21:09:19;;;;;;;9.38;4.40;;;;;;;;;;4936736;29;20521;-63
2022/02/07 21:11:49;;;;;;;5.88;2.80;;;;;;;;;;4937111;29;20043;-64
2022/02/07 21:14:15;;;;;;;4.43;2.55;;;;;;;;;;4936958;29;20027;-65
2022/02/07 21:16:43;;;;;;;5.10;2.20;;;;;;;;;;4936886;29;20476;-69
2022/02/07 21:19:09;;;;;;;5.55;2.55;;;;;;;;;;4938906;29;20023;-63
2022/02/07 21:21:36;;;;;;;6.78;3.35;;;;;;;;;;4940407;29;20031;-65
2022/02/07 21:24:02;;;;;;;9.82;3.85;;;;;;;;;;4944338;28;20046;-67
2022/02/07 21:26:28;;;;;;;6.90;3.80;;;;;;;;;;4942369;28;20058;-65
2022/02/07 21:28:54;;;;;;;5.68;3.42;;;;;;;;;;4949917;29;20402;-64
2022/02/07 21:31:24;;;;;;;9.77;3.88;;;;;;;;;;4955884;29;20027;-64
2022/02/07 21:33:50;;;;;;;9.27;3.95;;;;;;;;;;4955819;29;20042;-65
2022/02/07 21:36:24;;;;;;;7.15;3.63;;;;;;;;;;4955684;29;20035;-65
2022/02/07 21:38:50;;;;;;;8.35;4.20;;;;;;;;;;4955249;29;20073;-65